Time;durP1;ratioP1;P1;durP2;ratioP2;P2;SDS_P1;SDS_P2;PMS_P1;PMS_P2;Temp;Humidity;BMP_temperature;BMP_pressure;BME280_temperature;BME280_humidity;BME280_pressure;Samples;Min_cycle;Max_cycle;Signal;HPM_P1;HPM_P2
2023/05/20 00:01:37;;;;;;;8.93;4.72;;;14.00;99.90;;;;;;6251684;28;20540;-74
2023/05/20 00:04:42;;;;;;;9.25;4.90;;;14.00;99.90;;;;;;6254987;28;20046;-74
2023/05/20 00:07:44;;;;;;;9.43;5.10;;;14.00;99.90;;;;;;6258187;28;20388;-74
2023/05/20 00:10:47;;;;;;;10.60;5.13;;;14.00;99.90;;;;;;6252213;28;20471;-73
2023/05/20 00:13:49;;;;;;;8.88;5.03;;;14.00;99.90;;;;;;6248596;28;20060;-73
2023/05/20 00:16:51;;;;;;;8.30;4.88;;;14.00;99.90;;;;;;6248837;28;20060;-73
2023/05/20 00:19:53;;;;;;;8.38;4.40;;;14.00;99.90;;;;;;6248663;28;20052;-75
2023/05/20 00:22:55;;;;;;;7.25;4.60;;;14.00;99.90;;;;;;6248401;28;20052;-75
2023/05/20 00:25:58;;;;;;;8.73;5.07;;;14.00;99.90;;;;;;6248527;28;20049;-74
2023/05/20 00:29:00;;;;;;;;;;;14.00;99.90;;;;;;6248632;28;20046;-75
2023/05/20 00:32:02;;;;;;;7.90;4.50;;;14.00;99.90;;;;;;6248198;28;19925;-74
2023/05/20 00:35:05;;;;;;;10.15;4.88;;;14.00;99.90;;;;;;6248225;28;20054;-74
2023/05/20 00:38:07;;;;;;;7.75;4.70;;;14.00;99.90;;;;;;6248182;28;20049;-74
2023/05/20 00:41:10;;;;;;;9.43;4.90;;;14.00;99.90;;;;;;6247876;28;20410;-74
2023/05/20 00:44:12;;;;;;;8.88;4.45;;;14.00;99.90;;;;;;6247948;28;20061;-74
2023/05/20 00:47:15;;;;;;;9.18;4.22;;;13.90;99.90;;;;;;6248034;28;20071;-75
2023/05/20 00:50:17;;;;;;;8.75;4.70;;;13.90;99.90;;;;;;6247839;28;20046;-74
2023/05/20 00:53:20;;;;;;;10.10;5.20;;;13.90;99.90;;;;;;6247997;28;20052;-73
2023/05/20 00:56:23;;;;;;;6.13;4.15;;;13.90;99.90;;;;;;6248698;28;20081;-74
2023/05/20 00:59:26;;;;;;;7.05;4.20;;;14.00;99.90;;;;;;6253087;28;20522;-74
2023/05/20 01:02:28;;;;;;;9.10;4.70;;;14.00;99.90;;;;;;6252786;28;20053;-75
2023/05/20 01:05:30;;;;;;;10.88;4.50;;;13.90;99.90;;;;;;6252863;28;20053;-74
2023/05/20 01:08:32;;;;;;;8.80;4.57;;;13.90;99.90;;;;;;6253302;28;20132;-72
2023/05/20 01:11:43;;;;;;;7.93;4.72;;;13.90;99.90;;;;;;6253453;28;20053;-75
2023/05/20 01:14:49;;;;;;;8.55;4.38;;;13.80;99.90;;;;;;6253310;28;20048;-73
2023/05/20 01:18:00;;;;;;;6.75;4.20;;;13.90;99.90;;;;;;6252591;28;20162;-73
2023/05/20 01:21:03;;;;;;;8.07;4.40;;;13.80;99.90;;;;;;6252715;28;20064;-73
2023/05/20 01:24:07;;;;;;;9.38;4.55;;;13.80;99.90;;;;;;6235805;28;20054;-73
2023/05/20 01:27:09;;;;;;;;;;;13.70;99.90;;;;;;6253185;28;20188;-74
2023/05/20 01:30:12;;;;;;;8.48;4.35;;;13.60;99.90;;;;;;6252494;28;19921;-74
2023/05/20 01:33:17;;;;;;;7.57;4.13;;;13.60;99.90;;;;;;6252008;28;20165;-74
2023/05/20 01:36:21;;;;;;;6.80;4.15;;;13.60;99.90;;;;;;6252796;28;20045;-74
2023/05/20 01:39:26;;;;;;;7.63;4.13;;;13.60;99.90;;;;;;6252019;28;20057;-73
2023/05/20 01:42:29;;;;;;;7.55;4.20;;;13.60;99.90;;;;;;6251886;28;20041;-73
2023/05/20 01:45:31;;;;;;;7.40;4.38;;;13.60;99.90;;;;;;6251765;28;20046;-73
2023/05/20 01:48:33;;;;;;;7.30;4.32;;;13.60;99.90;;;;;;6251890;28;20458;-75
2023/05/20 01:51:35;;;;;;;9.13;4.78;;;13.60;99.90;;;;;;6251533;28;20049;-74
2023/05/20 01:54:39;;;;;;;8.95;4.53;;;13.50;99.90;;;;;;6251337;28;20479;-75
2023/05/20 01:57:41;;;;;;;7.95;4.40;;;13.50;99.90;;;;;;6251551;28;20067;-74
2023/05/20 02:00:43;;;;;;;8.32;4.60;;;13.40;99.90;;;;;;6251466;28;20265;-74
2023/05/20 02:03:44;;;;;;;7.03;4.45;;;13.40;99.90;;;;;;6251375;28;20042;-74
2023/05/20 02:06:46;;;;;;;6.85;4.35;;;13.30;99.90;;;;;;6251138;28;20141;-74
2023/05/20 02:09:49;;;;;;;7.15;4.78;;;13.30;99.90;;;;;;6250253;28;20052;-74
2023/05/20 02:12:51;;;;;;;7.20;4.80;;;13.20;99.90;;;;;;6251378;28;20404;-74
2023/05/20 02:15:53;;;;;;;9.82;4.90;;;13.20;99.90;;;;;;6251592;28;20053;-74
2023/05/20 02:18:57;;;;;;;11.07;5.13;;;13.10;99.90;;;;;;6251762;28;20049;-74
2023/05/20 02:21:59;;;;;;;;;;;13.10;99.90;;;;;;6250859;28;20049;-74
2023/05/20 02:25:02;;;;;;;8.63;5.45;;;13.10;99.90;;;;;;6250617;28;19932;-74
2023/05/20 02:28:09;;;;;;;8.88;5.30;;;13.10;99.90;;;;;;6250256;28;20050;-74
2023/05/20 02:31:11;;;;;;;8.70;5.47;;;13.00;99.90;;;;;;6250437;28;20054;-74
2023/05/20 02:34:13;;;;;;;8.18;5.10;;;13.00;99.90;;;;;;6250301;28;20049;-75
2023/05/20 02:37:14;;;;;;;8.27;5.80;;;12.90;99.90;;;;;;6250391;28;20052;-74
2023/05/20 02:40:18;;;;;;;7.95;5.05;;;13.00;99.90;;;;;;6250238;28;20049;-74
2023/05/20 02:43:20;;;;;;;10.43;5.50;;;12.90;99.90;;;;;;6249925;28;20056;-73
2023/05/20 02:46:21;;;;;;;8.07;5.47;;;12.90;99.90;;;;;;6256445;28;20491;-75
2023/05/20 02:49:24;;;;;;;8.32;5.10;;;12.80;99.90;;;;;;6264725;28;20050;-73
2023/05/20 02:52:26;;;;;;;9.07;5.38;;;12.80;99.90;;;;;;6263504;28;20046;-73
2023/05/20 02:55:29;;;;;;;9.55;5.55;;;12.70;99.90;;;;;;6264405;28;20056;-74
2023/05/20 02:58:32;;;;;;;9.32;5.40;;;12.70;99.90;;;;;;6253058;28;20418;-73
2023/05/20 03:01:34;;;;;;;8.73;5.53;;;12.70;99.90;;;;;;6250025;28;20055;-73
2023/05/20 03:04:37;;;;;;;11.13;5.57;;;12.70;99.90;;;;;;6249963;28;20053;-73
2023/05/20 03:07:39;;;;;;;10.30;5.87;;;12.70;99.90;;;;;;6249861;28;20053;-74
2023/05/20 03:10:42;;;;;;;8.23;5.47;;;12.60;99.90;;;;;;6249634;28;20041;-74
2023/05/20 03:13:44;;;;;;;8.52;5.80;;;12.50;99.90;;;;;;6249344;28;20058;-75
2023/05/20 03:16:46;;;;;;;11.60;5.72;;;12.60;99.90;;;;;;6249386;28;20279;-74
2023/05/20 03:19:48;;;;;;;11.60;5.78;;;12.60;99.90;;;;;;6248719;28;20045;-75
2023/05/20 03:22:50;;;;;;;9.18;5.95;;;12.60;99.90;;;;;;6248915;28;20054;-74
2023/05/20 03:25:53;;;;;;;9.95;5.78;;;12.60;99.90;;;;;;6249040;28;20053;-74
2023/05/20 03:28:55;;;;;;;7.72;5.70;;;12.60;99.90;;;;;;6249179;28;20052;-73
2023/05/20 03:31:57;;;;;;;8.45;5.50;;;12.60;99.90;;;;;;6248645;28;20053;-74
2023/05/20 03:34:58;;;;;;;9.30;5.68;;;12.60;99.90;;;;;;6249043;28;20152;-75
2023/05/20 03:38:00;;;;;;;7.85;5.07;;;12.60;99.90;;;;;;6249118;28;20057;-75
2023/05/20 03:41:04;;;;;;;9.60;5.95;;;12.60;99.90;;;;;;6248824;28;20056;-75
2023/05/20 03:44:05;;;;;;;9.75;6.45;;;12.60;99.90;;;;;;6248702;28;20049;-74
2023/05/20 03:47:07;;;;;;;7.55;5.28;;;12.60;99.90;;;;;;6248363;28;20150;-74
2023/05/20 03:50:10;;;;;;;9.25;5.80;;;12.60;99.90;;;;;;6248178;28;20053;-74
2023/05/20 03:53:12;;;;;;;8.53;5.30;;;12.60;99.90;;;;;;6247809;28;20487;-74
2023/05/20 03:56:15;;;;;;;9.07;5.70;;;12.70;99.90;;;;;;6248225;28;20063;-74
2023/05/20 03:59:18;;;;;;;7.38;5.15;;;12.60;99.90;;;;;;6248288;28;20046;-73
2023/05/20 04:02:20;;;;;;;9.60;5.20;;;12.60;99.90;;;;;;6248306;28;20417;-74
2023/05/20 04:05:24;;;;;;;8.15;5.28;;;12.60;99.90;;;;;;6248033;28;20060;-75
2023/05/20 04:08:26;;;;;;;8.30;4.88;;;12.60;99.90;;;;;;6248008;28;20057;-75
2023/05/20 04:11:29;;;;;;;8.63;5.47;;;12.60;99.90;;;;;;6247908;28;20049;-74
2023/05/20 04:14:32;;;;;;;7.80;5.05;;;12.70;99.90;;;;;;6247603;28;20410;-74
2023/05/20 04:17:36;;;;;;;8.55;5.20;;;12.70;99.90;;;;;;6247947;28;20041;-74
2023/05/20 04:20:40;;;;;;;9.77;6.05;;;12.70;99.90;;;;;;6247462;28;20443;-75
2023/05/20 04:23:41;;;;;;;;;;;12.70;99.90;;;;;;6248366;28;20053;-76
2023/05/20 04:26:45;;;;;;;9.68;5.60;;;12.70;99.90;;;;;;6247639;28;19928;-73
2023/05/20 04:29:47;;;;;;;8.70;5.63;;;12.70;99.90;;;;;;6247610;28;20136;-74
2023/05/20 04:32:50;;;;;;;7.65;5.20;;;12.80;99.90;;;;;;6247048;28;20059;-74
2023/05/20 04:35:52;;;;;;;8.77;5.77;;;12.80;99.90;;;;;;6247749;28;20045;-74
2023/05/20 04:38:54;;;;;;;9.05;5.47;;;12.80;99.90;;;;;;6247495;28;20050;-73
2023/05/20 04:41:58;;;;;;;7.22;5.10;;;12.70;99.90;;;;;;6247554;28;20546;-73
2023/05/20 04:45:00;;;;;;;;;;;12.80;99.90;;;;;;6248268;28;20049;-74
2023/05/20 04:48:02;;;;;;;10.02;5.70;;;12.70;99.90;;;;;;6248521;28;19924;-74
2023/05/20 04:51:04;;;;;;;8.70;4.93;;;12.80;99.90;;;;;;6247939;28;20052;-74
2023/05/20 04:54:06;;;;;;;10.48;5.40;;;12.90;99.90;;;;;;6247495;28;20049;-74
2023/05/20 04:57:10;;;;;;;9.25;5.45;;;12.90;99.90;;;;;;6247729;28;20497;-74
2023/05/20 05:00:13;;;;;;;8.05;5.50;;;12.90;99.90;;;;;;6247441;28;20049;-75
2023/05/20 05:03:15;;;;;;;9.13;5.50;;;12.90;99.90;;;;;;6247268;28;20057;-74
2023/05/20 05:06:17;;;;;;;9.88;5.45;;;12.90;99.90;;;;;;6247403;28;20053;-74
2023/05/20 05:09:18;;;;;;;8.73;5.43;;;12.90;99.90;;;;;;6247296;28;20427;-75
2023/05/20 05:12:22;;;;;;;10.30;5.63;;;13.00;99.90;;;;;;6246877;28;20041;-74
2023/05/20 05:15:24;;;;;;;8.43;5.30;;;13.10;99.90;;;;;;6247179;28;20049;-73
2023/05/20 05:18:26;;;;;;;8.85;5.30;;;13.10;99.90;;;;;;6246991;28;20606;-73
2023/05/20 05:21:28;;;;;;;9.25;5.75;;;13.00;99.90;;;;;;6246857;28;20064;-74
2023/05/20 05:24:29;;;;;;;8.40;5.22;;;13.10;99.90;;;;;;6246793;28;20392;-75
2023/05/20 05:27:33;;;;;;;10.07;5.78;;;13.20;99.90;;;;;;6247261;28;20057;-74
2023/05/20 05:30:36;;;;;;;9.65;5.68;;;13.20;99.90;;;;;;6246617;28;20454;-74
2023/05/20 05:33:38;;;;;;;11.32;6.07;;;13.30;99.90;;;;;;6247010;28;20060;-74
2023/05/20 05:36:41;;;;;;;8.52;6.10;;;13.30;99.90;;;;;;6246667;28;20046;-73
2023/05/20 05:39:43;;;;;;;8.18;5.45;;;13.40;99.90;;;;;;6246690;28;20046;-74
2023/05/20 05:42:46;;;;;;;9.00;5.93;;;13.40;99.90;;;;;;6246833;28;20061;-73
2023/05/20 05:45:48;;;;;;;9.10;5.57;;;13.40;99.90;;;;;;6251374;28;20602;-74
2023/05/20 05:48:50;;;;;;;9.15;5.90;;;13.20;99.90;;;;;;6250922;28;20045;-75
2023/05/20 05:51:52;;;;;;;9.68;6.22;;;13.20;99.90;;;;;;6251049;28;20050;-73
2023/05/20 05:54:55;;;;;;;9.68;5.68;;;13.30;99.90;;;;;;6251308;28;20045;-74
2023/05/20 05:57:58;;;;;;;9.20;5.68;;;13.50;99.90;;;;;;6251302;28;20050;-74
2023/05/20 06:01:00;;;;;;;9.65;5.30;;;13.50;99.90;;;;;;6250993;28;20414;-74
2023/05/20 06:04:02;;;;;;;9.35;5.68;;;13.60;99.90;;;;;;6251183;28;20061;-73
2023/05/20 06:07:05;;;;;;;9.13;6.15;;;13.70;99.90;;;;;;6251479;28;20045;-74
2023/05/20 06:10:08;;;;;;;9.23;5.22;;;13.40;99.90;;;;;;6250857;28;20056;-76
2023/05/20 06:13:11;;;;;;;8.25;5.53;;;13.60;99.90;;;;;;6250566;28;20399;-74
2023/05/20 06:16:13;;;;;;;9.15;5.60;;;13.60;99.90;;;;;;6250630;28;20041;-75
2023/05/20 06:19:15;;;;;;;10.60;6.32;;;13.80;99.90;;;;;;6250528;28;20068;-75
2023/05/20 06:22:17;;;;;;;8.40;5.80;;;13.80;99.90;;;;;;6250975;28;20072;-76
2023/05/20 06:25:18;;;;;;;11.45;6.13;;;13.90;99.90;;;;;;6250393;28;20510;-74
2023/05/20 06:28:22;;;;;;;11.63;6.25;;;13.60;99.90;;;;;;6250314;28;20049;-75
2023/05/20 06:31:24;;;;;;;7.60;5.35;;;13.60;99.90;;;;;;6232563;28;20053;-75
2023/05/20 06:34:26;;;;;;;8.70;5.88;;;13.90;99.90;;;;;;6250171;28;20053;-75
2023/05/20 06:37:28;;;;;;;9.63;5.85;;;14.00;99.90;;;;;;6249872;28;20418;-74
2023/05/20 06:40:29;;;;;;;8.10;5.30;;;14.10;99.90;;;;;;6250516;28;20148;-75
2023/05/20 06:43:33;;;;;;;10.30;6.05;;;14.20;99.90;;;;;;6250151;28;20049;-75
2023/05/20 06:46:35;;;;;;;7.82;5.53;;;14.20;99.90;;;;;;6250393;28;20056;-75
2023/05/20 06:49:37;;;;;;;8.88;5.95;;;14.30;99.90;;;;;;6250063;28;20056;-74
2023/05/20 06:52:38;;;;;;;10.23;6.00;;;14.60;99.90;;;;;;6250363;28;20045;-75
2023/05/20 06:55:40;;;;;;;11.70;7.22;;;14.70;99.90;;;;;;6249646;28;20380;-75
2023/05/20 06:58:43;;;;;;;16.00;8.43;;;14.80;99.90;;;;;;6251702;28;20048;-74
2023/05/20 07:01:45;;;;;;;15.68;8.57;;;14.90;99.90;;;;;;6250331;28;20058;-75
2023/05/20 07:04:47;;;;;;;14.25;8.20;;;14.80;99.90;;;;;;6250171;28;20076;-74
2023/05/20 07:07:49;;;;;;;13.18;7.93;;;14.70;99.90;;;;;;6250375;28;20417;-74
2023/05/20 07:10:51;;;;;;;12.10;7.20;;;14.80;99.90;;;;;;6265417;28;20109;-75
2023/05/20 07:13:54;;;;;;;11.27;6.90;;;15.00;99.90;;;;;;6272808;28;20056;-73
2023/05/20 07:16:56;;;;;;;12.77;7.60;;;15.00;99.90;;;;;;6265206;28;20057;-74
2023/05/20 07:19:58;;;;;;;11.07;7.68;;;15.00;99.90;;;;;;6256935;28;20045;-74
2023/05/20 07:23:02;;;;;;;11.43;7.05;;;15.10;99.90;;;;;;6249315;28;20053;-75
2023/05/20 07:26:05;;;;;;;10.48;6.90;;;15.30;99.90;;;;;;6249793;28;20184;-75
2023/05/20 07:29:09;;;;;;;10.40;6.68;;;15.40;99.90;;;;;;6249374;28;20475;-75
2023/05/20 07:32:11;;;;;;;10.68;6.68;;;15.50;99.90;;;;;;6249317;28;20060;-74
2023/05/20 07:35:13;;;;;;;11.05;6.75;;;15.60;99.90;;;;;;6248974;28;20045;-74
2023/05/20 07:38:15;;;;;;;10.45;6.75;;;15.40;99.90;;;;;;6248739;28;20052;-73
2023/05/20 07:41:17;;;;;;;11.25;7.30;;;15.60;99.90;;;;;;6248603;28;20390;-74
2023/05/20 07:44:22;;;;;;;11.45;7.10;;;15.70;99.90;;;;;;6248630;28;20045;-74
2023/05/20 07:47:23;;;;;;;9.27;6.05;;;15.60;99.90;;;;;;6248743;28;20057;-74
2023/05/20 07:50:25;;;;;;;10.15;6.70;;;15.50;99.90;;;;;;6248719;28;20046;-74
2023/05/20 07:53:27;;;;;;;10.98;6.75;;;15.60;99.90;;;;;;6248240;28;20501;-74
2023/05/20 07:56:29;;;;;;;8.35;5.63;;;15.50;99.90;;;;;;6248788;28;20549;-75
2023/05/20 07:59:33;;;;;;;8.77;5.97;;;15.60;99.90;;;;;;6248668;28;20045;-75
2023/05/20 08:02:34;;;;;;;9.63;6.10;;;15.70;99.90;;;;;;6248373;28;20165;-74
2023/05/20 08:05:37;;;;;;;7.97;5.55;;;15.80;99.90;;;;;;6248153;28;20411;-74
2023/05/20 08:08:40;;;;;;;9.25;5.78;;;16.00;99.90;;;;;;6248006;28;20053;-74
2023/05/20 08:11:42;;;;;;;8.13;5.65;;;15.90;99.90;;;;;;6247940;28;20132;-75
2023/05/20 08:14:45;;;;;;;9.85;5.90;;;15.90;99.90;;;;;;6248080;28;20060;-74
2023/05/20 08:17:47;;;;;;;8.13;6.03;;;16.10;99.90;;;;;;6247600;28;20049;-74
2023/05/20 08:20:49;;;;;;;7.53;5.70;;;16.10;99.90;;;;;;6247818;28;20072;-74
2023/05/20 08:23:51;;;;;;;7.45;5.18;;;16.20;99.90;;;;;;6247656;28;20076;-74
2023/05/20 08:26:53;;;;;;;8.38;5.85;;;16.30;99.90;;;;;;6248178;28;20050;-73
2023/05/20 08:29:56;;;;;;;8.95;5.70;;;16.40;99.90;;;;;;6248066;28;20045;-74
2023/05/20 08:32:58;;;;;;;8.07;5.90;;;16.40;99.90;;;;;;6248052;28;20498;-75
2023/05/20 08:36:00;;;;;;;8.98;5.75;;;16.60;99.90;;;;;;6247476;28;20052;-73
2023/05/20 08:39:03;;;;;;;6.95;5.40;;;16.60;99.90;;;;;;6247979;28;20060;-76
2023/05/20 08:42:06;;;;;;;9.63;6.07;;;16.70;99.90;;;;;;6249200;28;20140;-74
2023/05/20 08:45:11;;;;;;;;;;;17.00;99.90;;;;;;6256722;28;20483;-74
2023/05/20 08:48:13;;;;;;;8.00;5.80;;;17.20;99.90;;;;;;6250919;28;19921;-73
2023/05/20 08:51:18;;;;;;;10.48;6.20;;;17.20;99.90;;;;;;6252216;28;20046;-74
2023/05/20 08:54:22;;;;;;;8.38;5.60;;;17.30;99.90;;;;;;6265801;28;20395;-74
2023/05/20 08:57:24;;;;;;;7.70;5.65;;;17.30;99.90;;;;;;6264625;28;20045;-74
2023/05/20 09:00:28;;;;;;;7.57;5.25;;;17.40;99.90;;;;;;6272380;28;20051;-74
2023/05/20 09:03:30;;;;;;;7.53;5.40;;;17.60;99.40;;;;;;6265197;28;20165;-75
2023/05/20 09:06:43;;;;;;;6.50;4.97;;;17.70;98.60;;;;;;6256101;28;20042;-75
2023/05/20 09:09:45;;;;;;;7.53;5.30;;;17.80;98.40;;;;;;6258145;28;20507;-75
2023/05/20 09:12:47;;;;;;;7.03;4.70;;;18.00;98.60;;;;;;6255556;28;20140;-75
2023/05/20 09:15:50;;;;;;;6.30;4.68;;;18.00;97.70;;;;;;6247607;28;20045;-74
2023/05/20 09:18:55;;;;;;;8.77;5.05;;;18.20;97.60;;;;;;6251326;28;20053;-74
2023/05/20 09:21:57;;;;;;;8.50;5.63;;;18.30;97.50;;;;;;6252645;28;20060;-74
2023/05/20 09:24:59;;;;;;;7.75;5.70;;;18.30;98.10;;;;;;6252141;28;20166;-75
2023/05/20 09:28:01;;;;;;;8.02;5.70;;;18.30;97.70;;;;;;6252024;28;20055;-74
2023/05/20 09:31:07;;;;;;;8.05;5.95;;;18.30;97.80;;;;;;6252868;28;20045;-75
2023/05/20 09:34:09;;;;;;;8.68;6.20;;;18.20;97.70;;;;;;6252174;28;20059;-75
2023/05/20 09:37:12;;;;;;;7.78;5.65;;;18.20;98.00;;;;;;6251898;28;20049;-74
2023/05/20 09:40:16;;;;;;;7.93;5.55;;;18.30;98.40;;;;;;6251950;28;20507;-74
2023/05/20 09:43:18;;;;;;;;;;;18.20;98.10;;;;;;6251696;28;20065;-74
2023/05/20 09:46:21;;;;;;;7.45;5.50;;;18.10;97.90;;;;;;6251565;28;19927;-75
2023/05/20 09:49:25;;;;;;;6.78;5.38;;;18.20;98.30;;;;;;6251165;28;20061;-75
2023/05/20 09:52:27;;;;;;;6.97;5.55;;;18.30;98.40;;;;;;6251532;28;20056;-74
2023/05/20 09:55:30;;;;;;;8.93;4.93;;;18.30;97.60;;;;;;6253072;28;20058;-74
2023/05/20 09:58:35;;;;;;;9.75;5.75;;;18.40;97.20;;;;;;6256145;28;20049;-74
2023/05/20 10:01:38;;;;;;;7.25;5.55;;;18.30;97.40;;;;;;6255228;28;20486;-74
2023/05/20 10:04:47;;;;;;;7.40;5.55;;;18.40;97.60;;;;;;6257243;28;20230;-75
2023/05/20 10:08:35;;;;;;;7.90;5.00;;;18.60;97.30;;;;;;6254425;28;20168;-75
2023/05/20 10:11:48;;;;;;;8.77;5.20;;;18.70;96.80;;;;;;6251341;28;20056;-75
2023/05/20 10:15:03;;;;;;;7.40;5.53;;;18.80;96.70;;;;;;6251087;28;20057;-75
2023/05/20 10:18:19;;;;;;;7.68;4.90;;;18.80;96.40;;;;;;6251618;28;20057;-74
2023/05/20 10:21:24;;;;;;;7.18;5.43;;;18.70;96.20;;;;;;6255643;28;20090;-75
2023/05/20 10:24:32;;;;;;;6.28;4.88;;;18.70;96.80;;;;;;6254972;28;20113;-74
2023/05/20 10:27:44;;;;;;;7.13;4.78;;;18.80;96.80;;;;;;6256759;28;20048;-74
2023/05/20 10:30:50;;;;;;;7.63;5.03;;;19.00;97.00;;;;;;6253255;28;20391;-75
2023/05/20 10:33:54;;;;;;;8.05;4.90;;;19.20;96.40;;;;;;6251101;28;20140;-74
2023/05/20 10:37:00;;;;;;;6.90;4.65;;;19.30;95.70;;;;;;6250234;28;20450;-74
2023/05/20 10:40:09;;;;;;;6.53;4.53;;;19.40;95.40;;;;;;6250584;28;20514;-74
2023/05/20 10:43:12;;;;;;;9.35;4.55;;;19.60;94.70;;;;;;6249999;28;20049;-75
2023/05/20 10:46:18;;;;;;;6.70;4.45;;;19.60;95.40;;;;;;6250152;28;20045;-74
2023/05/20 10:49:21;;;;;;;8.07;5.18;;;19.80;95.60;;;;;;6250159;28;20046;-75
2023/05/20 10:52:24;;;;;;;8.75;5.95;;;19.90;95.00;;;;;;6249942;28;20376;-76
2023/05/20 10:55:26;;;;;;;9.57;5.50;;;20.10;95.30;;;;;;6249633;28;20053;-76
2023/05/20 10:58:28;;;;;;;7.47;4.63;;;20.10;94.10;;;;;;6249674;28;20068;-74
2023/05/20 11:01:30;;;;;;;6.50;4.70;;;20.10;93.80;;;;;;6249665;28;20352;-74
2023/05/20 11:04:33;;;;;;;6.55;4.40;;;20.10;95.10;;;;;;6249445;28;20065;-73
2023/05/20 11:07:35;;;;;;;;;;;20.10;93.90;;;;;;6250130;28;20042;-75
2023/05/20 11:10:37;;;;;;;6.03;4.68;;;20.10;94.30;;;;;;6249560;28;19921;-74
2023/05/20 11:13:39;;;;;;;6.65;4.88;;;20.10;93.60;;;;;;6249181;28;20406;-74
2023/05/20 11:16:42;;;;;;;7.05;4.93;;;20.20;93.10;;;;;;6249140;28;20054;-74
2023/05/20 11:19:47;;;;;;;6.90;4.75;;;20.20;93.20;;;;;;6249852;28;20049;-75
2023/05/20 11:22:50;;;;;;;6.80;4.65;;;20.20;93.80;;;;;;6249861;28;20069;-74
2023/05/20 11:25:53;;;;;;;10.55;6.50;;;20.40;94.70;;;;;;6250067;28;20108;-75
2023/05/20 11:28:55;;;;;;;7.20;4.70;;;20.70;94.50;;;;;;6250383;28;20052;-76
2023/05/20 11:31:56;;;;;;;8.63;4.68;;;20.70;93.90;;;;;;6249379;28;20443;-75
2023/05/20 11:35:00;;;;;;;6.32;4.40;;;20.80;93.60;;;;;;6249018;28;20064;-75
2023/05/20 11:38:06;;;;;;;8.52;4.43;;;21.00;93.60;;;;;;6249118;28;20136;-74
2023/05/20 11:41:08;;;;;;;6.25;4.68;;;21.10;92.50;;;;;;6248001;28;20057;-75
2023/05/20 11:44:11;;;;;;;8.75;4.68;;;21.00;92.40;;;;;;6248364;28;20495;-74
2023/05/20 11:47:13;;;;;;;6.57;4.20;;;21.10;92.90;;;;;;6248642;28;20045;-74
2023/05/20 11:50:20;;;;;;;5.78;4.50;;;21.20;92.70;;;;;;6248283;28;20049;-74
2023/05/20 11:53:24;;;;;;;7.35;4.50;;;21.20;92.10;;;;;;6248290;28;20056;-73
2023/05/20 11:56:26;;;;;;;7.32;4.05;;;21.20;92.50;;;;;;6248407;28;20098;-74
2023/05/20 11:59:28;;;;;;;7.03;4.50;;;21.20;91.80;;;;;;6248300;28;20057;-74
2023/05/20 12:02:29;;;;;;;6.65;4.47;;;21.20;91.90;;;;;;6248214;28;20052;-74
2023/05/20 12:05:33;;;;;;;7.82;4.75;;;21.30;91.80;;;;;;6248122;28;20050;-76
2023/05/20 12:08:35;;;;;;;7.78;4.45;;;21.10;92.10;;;;;;6247789;28;20407;-74
2023/05/20 12:11:39;;;;;;;8.77;4.32;;;21.20;92.10;;;;;;6247900;28;20143;-75
2023/05/20 12:14:41;;;;;;;5.65;4.15;;;21.30;92.50;;;;;;6247583;28;20052;-74
2023/05/20 12:17:48;;;;;;;8.13;4.43;;;21.40;91.30;;;;;;6247900;28;20041;-73
2023/05/20 12:20:51;;;;;;;9.43;6.38;;;21.50;91.10;;;;;;6247473;28;20053;-75
2023/05/20 12:23:56;;;;;;;7.55;4.22;;;21.40;91.30;;;;;;6247749;28;20049;-74
2023/05/20 12:26:58;;;;;;;6.95;4.15;;;21.60;91.20;;;;;;6247772;28;20203;-74
2023/05/20 12:30:00;;;;;;;6.70;3.80;;;22.00;90.90;;;;;;6247602;28;20053;-75
2023/05/20 12:33:02;;;;;;;5.50;3.80;;;22.20;91.00;;;;;;6247888;28;20045;-74
2023/05/20 12:36:06;;;;;;;6.35;3.80;;;22.50;91.20;;;;;;6247362;28;20060;-74
2023/05/20 12:39:09;;;;;;;6.00;4.20;;;22.80;89.80;;;;;;6247591;28;20045;-75
2023/05/20 12:42:11;;;;;;;6.75;3.67;;;22.90;86.90;;;;;;6247434;28;20403;-74
2023/05/20 12:45:13;;;;;;;7.25;4.20;;;23.00;86.90;;;;;;6247379;28;20068;-75
2023/05/20 12:48:15;;;;;;;10.23;4.40;;;23.10;86.60;;;;;;6247076;28;20046;-74
2023/05/20 12:51:19;;;;;;;6.30;4.23;;;23.10;85.70;;;;;;6247235;28;20111;-74
2023/05/20 12:54:21;;;;;;;6.63;3.80;;;23.10;84.50;;;;;;6246842;28;20052;-74
2023/05/20 12:57:24;;;;;;;5.28;3.70;;;23.00;84.10;;;;;;6247150;28;20483;-74
2023/05/20 13:00:25;;;;;;;6.20;3.50;;;22.80;82.60;;;;;;6229550;28;20053;-74
2023/05/20 13:03:27;;;;;;;4.53;3.10;;;23.40;84.00;;;;;;6247074;28;20407;-75
2023/05/20 13:06:31;;;;;;;7.38;3.40;;;23.60;82.40;;;;;;6247053;28;20049;-74
2023/05/20 13:09:33;;;;;;;5.97;2.92;;;23.80;78.60;;;;;;6246722;28;20048;-74
2023/05/20 13:12:35;;;;;;;6.53;3.10;;;23.80;78.40;;;;;;6247045;28;20056;-74
2023/05/20 13:15:37;;;;;;;5.40;3.30;;;23.80;77.50;;;;;;6246677;28;20091;-75
2023/05/20 13:18:39;;;;;;;4.75;2.80;;;23.70;79.40;;;;;;6246779;28;20116;-74
2023/05/20 13:21:42;;;;;;;5.72;3.10;;;23.70;77.00;;;;;;6246716;28;20057;-75
2023/05/20 13:24:44;;;;;;;;;;;23.70;76.40;;;;;;6247352;28;20054;-75
2023/05/20 13:27:46;;;;;;;4.63;3.13;;;23.40;76.60;;;;;;6246891;28;19931;-74
2023/05/20 13:30:47;;;;;;;6.25;4.18;;;23.60;76.50;;;;;;6246837;28;20495;-73
2023/05/20 13:33:51;;;;;;;12.77;7.30;;;23.70;76.80;;;;;;6246778;28;20049;-76
2023/05/20 13:36:55;;;;;;;5.88;3.10;;;23.60;75.50;;;;;;6246591;28;20045;-76
2023/05/20 13:39:56;;;;;;;;;;;23.60;75.40;;;;;;6247104;28;20053;-76
2023/05/20 13:42:58;;;;;;;4.82;3.20;;;23.70;75.30;;;;;;6246549;28;19921;-74
2023/05/20 13:46:00;;;;;;;4.47;2.90;;;23.80;75.70;;;;;;6246767;28;20057;-74
2023/05/20 13:49:02;;;;;;;5.45;3.13;;;23.80;74.10;;;;;;6246311;28;20096;-75
2023/05/20 13:52:06;;;;;;;5.15;2.88;;;23.90;74.70;;;;;;6246502;28;20046;-75
2023/05/20 13:55:09;;;;;;;5.88;2.97;;;24.20;74.20;;;;;;6250030;28;20064;-75
2023/05/20 13:58:11;;;;;;;4.45;2.70;;;24.40;72.70;;;;;;6256691;28;20049;-75
2023/05/20 14:01:14;;;;;;;4.45;2.78;;;24.60;73.00;;;;;;6267377;28;20041;-75
2023/05/20 14:04:16;;;;;;;4.93;2.90;;;25.00;70.90;;;;;;6268052;28;20056;-75
2023/05/20 14:07:19;;;;;;;5.35;2.90;;;25.00;71.40;;;;;;6252314;28;20072;-76
2023/05/20 14:10:21;;;;;;;;;;;25.10;70.30;;;;;;6251053;28;20056;-73
2023/05/20 14:13:23;;;;;;;5.68;3.17;;;25.10;70.00;;;;;;6250714;28;19928;-73
2023/05/20 14:16:25;;;;;;;4.87;2.60;;;25.20;69.20;;;;;;6250960;28;20479;-75
2023/05/20 14:19:27;;;;;;;6.15;3.50;;;25.40;69.90;;;;;;6250683;28;20296;-75
2023/05/20 14:22:30;;;;;;;4.80;2.70;;;25.50;67.70;;;;;;6250269;28;20132;-73
2023/05/20 14:25:32;;;;;;;;;;;25.20;68.90;;;;;;6251743;28;20240;-75
2023/05/20 14:28:33;;;;;;;5.18;2.75;;;25.30;69.20;;;;;;6253284;28;19928;-74
2023/05/20 14:31:37;;;;;;;7.13;2.90;;;25.50;71.10;;;;;;6253645;28;20049;-74
2023/05/20 14:34:39;;;;;;;4.40;3.00;;;25.60;69.00;;;;;;6252166;28;20136;-74
2023/05/20 14:37:42;;;;;;;5.30;2.90;;;25.30;68.80;;;;;;6252826;28;20053;-76
2023/05/20 14:40:44;;;;;;;4.25;2.72;;;25.40;69.50;;;;;;6251772;28;20057;-75
2023/05/20 14:43:46;;;;;;;4.70;3.10;;;25.40;68.40;;;;;;6251166;28;20502;-74
2023/05/20 14:46:47;;;;;;;4.35;2.80;;;25.10;68.30;;;;;;6252029;28;20046;-76
2023/05/20 14:49:50;;;;;;;4.32;2.88;;;25.20;69.70;;;;;;6251561;28;20045;-74
2023/05/20 14:52:53;;;;;;;4.97;3.20;;;25.40;69.50;;;;;;6232911;28;20052;-76
2023/05/20 14:55:55;;;;;;;;;;;25.50;68.70;;;;;;6249820;28;20053;-73
2023/05/20 14:58:57;;;;;;;4.18;2.97;;;25.70;68.60;;;;;;6249675;28;19932;-75
2023/05/20 15:01:58;;;;;;;4.78;2.88;;;25.80;68.60;;;;;;6249590;28;20491;-75
2023/05/20 15:05:00;;;;;;;4.30;2.80;;;26.00;67.90;;;;;;6249622;28;20052;-74
2023/05/20 15:08:04;;;;;;;5.95;2.70;;;26.30;68.30;;;;;;6249332;28;20052;-75
2023/05/20 15:11:06;;;;;;;5.20;2.70;;;26.60;67.90;;;;;;6249614;28;20052;-75
2023/05/20 15:14:08;;;;;;;4.85;2.92;;;26.80;64.10;;;;;;6249181;28;20387;-74
2023/05/20 15:17:10;;;;;;;5.13;2.63;;;27.20;64.60;;;;;;6249152;28;20410;-75
2023/05/20 15:20:13;;;;;;;5.53;2.53;;;27.20;65.40;;;;;;6249002;28;20067;-75
2023/05/20 15:23:17;;;;;;;5.53;2.70;;;27.10;63.50;;;;;;6249446;28;20050;-75
2023/05/20 15:26:20;;;;;;;5.00;2.90;;;27.10;63.20;;;;;;6249571;28;20450;-73
2023/05/20 15:29:22;;;;;;;;;;;27.10;63.80;;;;;;6249483;28;20524;-72
2023/05/20 15:32:24;;;;;;;4.93;2.80;;;27.30;62.50;;;;;;6249200;28;19925;-74
2023/05/20 15:35:25;;;;;;;5.70;3.45;;;27.10;63.10;;;;;;6249062;28;20049;-76
2023/05/20 15:38:29;;;;;;;4.75;3.00;;;27.10;63.00;;;;;;6248734;28;20407;-74
2023/05/20 15:41:31;;;;;;;4.25;2.85;;;27.00;63.20;;;;;;6248566;28;20056;-75
2023/05/20 15:44:34;;;;;;;4.65;3.10;;;26.70;64.20;;;;;;6248790;28;20052;-74
2023/05/20 15:47:36;;;;;;;6.72;3.17;;;26.70;63.90;;;;;;6248479;28;20045;-73
2023/05/20 15:50:39;;;;;;;5.30;3.00;;;27.20;64.00;;;;;;6248389;28;20049;-73
2023/05/20 15:53:42;;;;;;;5.43;2.92;;;27.20;65.00;;;;;;6248253;28;20060;-73